createdAt,value
2018-08-30T00:00:08.888Z,32.70
2018-08-30T00:01:09.079Z,30.30
2018-08-30T00:02:09.268Z,29.90
2018-08-30T00:03:09.480Z,28.50
2018-08-30T00:04:09.676Z,33.20
2018-08-30T00:05:09.867Z,28.70
2018-08-30T00:06:10.063Z,29.10
2018-08-30T00:07:10.254Z,29.00
2018-08-30T00:08:10.444Z,31.00
2018-08-30T00:09:10.637Z,32.80
2018-08-30T00:10:10.825Z,30.10
2018-08-30T00:11:11.020Z,28.30
2018-08-30T00:12:11.212Z,29.10
2018-08-30T00:13:11.402Z,28.90
2018-08-30T00:14:11.595Z,26.80
2018-08-30T00:15:11.785Z,30.90
2018-08-30T00:16:11.982Z,29.40
2018-08-30T00:17:12.175Z,30.70
2018-08-30T00:18:12.365Z,31.70
2018-08-30T00:19:12.560Z,31.70
2018-08-30T00:20:12.750Z,33.30
2018-08-30T00:21:12.940Z,35.30
2018-08-30T00:22:13.131Z,31.40
2018-08-30T00:23:13.324Z,32.20
2018-08-30T00:24:13.519Z,27.30
2018-08-30T00:25:13.712Z,27.90
2018-08-30T00:26:13.905Z,31.20
2018-08-30T00:27:14.102Z,31.60
2018-08-30T00:28:14.300Z,31.60
2018-08-30T00:29:14.492Z,33.90
2018-08-30T00:30:14.684Z,30.30
2018-08-30T00:31:14.878Z,27.70
2018-08-30T00:32:15.073Z,30.20
2018-08-30T00:33:15.257Z,27.60
2018-08-30T00:34:15.452Z,31.70
2018-08-30T00:35:15.648Z,31.20
2018-08-30T00:36:15.851Z,32.10
2018-08-30T00:37:16.050Z,29.40
2018-08-30T00:38:16.251Z,31.60
2018-08-30T00:39:16.441Z,31.40
2018-08-30T00:40:16.633Z,30.90
2018-08-30T00:41:16.865Z,32.80
2018-08-30T00:42:17.025Z,32.20
2018-08-30T00:43:17.215Z,32.90
2018-08-30T00:44:17.407Z,31.20
2018-08-30T00:45:17.604Z,29.00
2018-08-30T00:46:17.796Z,30.60
2018-08-30T00:47:17.993Z,32.10
2018-08-30T00:48:18.195Z,31.50
2018-08-30T00:49:18.385Z,34.30
2018-08-30T00:50:18.585Z,31.70
2018-08-30T00:51:18.780Z,31.50
2018-08-30T00:52:18.967Z,29.30
2018-08-30T00:53:19.162Z,29.80
2018-08-30T00:54:19.362Z,36.40
2018-08-30T00:55:19.556Z,30.40
2018-08-30T00:56:19.761Z,32.30
2018-08-30T00:57:19.950Z,28.80
2018-08-30T00:58:20.143Z,30.80
2018-08-30T00:59:20.332Z,30.00
2018-08-30T01:00:20.527Z,30.10
2018-08-30T01:01:20.726Z,30.90
2018-08-30T01:02:20.914Z,30.80
2018-08-30T01:03:21.111Z,28.50
2018-08-30T01:04:21.298Z,25.50
2018-08-30T01:05:21.493Z,28.00
2018-08-30T01:06:21.685Z,27.70
2018-08-30T01:07:21.876Z,23.50
2018-08-30T01:08:22.068Z,21.60
2018-08-30T01:09:22.261Z,21.70
2018-08-30T01:10:22.455Z,18.60
2018-08-30T01:11:22.649Z,21.20
2018-08-30T01:12:22.841Z,19.00
2018-08-30T01:13:23.032Z,20.10
2018-08-30T01:14:23.222Z,19.10
2018-08-30T01:15:23.415Z,18.60
2018-08-30T01:16:23.613Z,19.00
2018-08-30T01:17:23.801Z,20.20
2018-08-30T01:18:23.992Z,17.00
2018-08-30T01:19:24.187Z,15.60
2018-08-30T01:20:24.377Z,17.20
2018-08-30T01:21:24.569Z,17.40
2018-08-30T01:22:24.763Z,16.60
2018-08-30T01:23:24.956Z,14.90
2018-08-30T01:24:25.152Z,16.70
2018-08-30T01:25:25.353Z,17.80
2018-08-30T01:26:25.545Z,16.40
2018-08-30T01:27:25.740Z,16.70
2018-08-30T01:28:25.929Z,16.70
2018-08-30T01:29:26.123Z,17.90
2018-08-30T01:30:26.317Z,15.70
2018-08-30T01:31:26.511Z,17.60
2018-08-30T01:32:26.705Z,16.90
2018-08-30T01:33:26.896Z,16.90
2018-08-30T01:34:27.094Z,15.90
2018-08-30T01:35:27.283Z,17.50
2018-08-30T01:36:27.487Z,20.60
2018-08-30T01:37:27.679Z,19.70
2018-08-30T01:38:27.871Z,17.50
2018-08-30T01:39:28.064Z,20.60
2018-08-30T01:40:28.253Z,19.90
2018-08-30T01:41:28.449Z,17.20
2018-08-30T01:42:28.639Z,19.60
2018-08-30T01:43:28.839Z,17.50
2018-08-30T01:44:29.042Z,21.80
2018-08-30T01:45:29.233Z,26.70
2018-08-30T01:46:29.428Z,25.20
2018-08-30T01:47:29.626Z,29.00
2018-08-30T01:48:29.839Z,28.50
2018-08-30T01:49:30.030Z,28.00
2018-08-30T01:50:30.221Z,27.10
2018-08-30T01:51:30.419Z,28.40
2018-08-30T01:52:30.607Z,30.00
2018-08-30T01:53:30.799Z,29.80
2018-08-30T01:54:30.987Z,30.80
2018-08-30T01:55:31.183Z,32.10
2018-08-30T01:56:31.372Z,35.30
2018-08-30T01:57:31.568Z,32.50
2018-08-30T01:58:31.759Z,32.20
2018-08-30T01:59:31.953Z,35.70
2018-08-30T02:00:32.153Z,35.90
2018-08-30T02:01:32.345Z,40.10
2018-08-30T02:02:32.536Z,38.30
2018-08-30T02:03:32.729Z,36.20
2018-08-30T02:04:32.921Z,39.60
2018-08-30T02:05:33.113Z,40.20
2018-08-30T02:06:33.307Z,40.20
2018-08-30T02:07:33.497Z,44.90
2018-08-30T02:08:33.692Z,45.90
2018-08-30T02:09:33.883Z,45.30
2018-08-30T02:10:34.073Z,47.50
2018-08-30T02:11:34.266Z,47.20
2018-08-30T02:12:34.462Z,46.30
2018-08-30T02:13:34.658Z,47.20
2018-08-30T02:14:34.851Z,48.00
2018-08-30T02:15:35.041Z,52.80
2018-08-30T02:16:35.230Z,49.50
2018-08-30T02:17:35.442Z,54.60
2018-08-30T02:18:35.619Z,54.60
2018-08-30T02:19:35.814Z,56.90
2018-08-30T02:20:36.005Z,56.70
2018-08-30T02:21:36.195Z,55.10
2018-08-30T02:22:36.386Z,56.20
2018-08-30T02:23:36.580Z,56.10
2018-08-30T02:24:36.777Z,56.90
2018-08-30T02:25:36.969Z,58.60
2018-08-30T02:26:37.158Z,54.80
2018-08-30T02:27:37.408Z,57.70
2018-08-30T02:28:37.541Z,59.60
2018-08-30T02:29:37.733Z,60.30
2018-08-30T02:30:37.930Z,58.10
2018-08-30T02:31:38.124Z,58.30
2018-08-30T02:32:38.316Z,57.80
2018-08-30T02:33:38.508Z,61.10
2018-08-30T02:34:38.700Z,60.10
2018-08-30T02:35:38.897Z,60.80
2018-08-30T02:36:39.093Z,62.00
2018-08-30T02:37:39.286Z,62.30
2018-08-30T02:38:39.475Z,64.00
2018-08-30T02:39:39.664Z,65.90
2018-08-30T02:40:39.858Z,62.30
2018-08-30T02:41:40.049Z,63.40
2018-08-30T02:42:40.240Z,65.90
2018-08-30T02:43:40.440Z,63.50
2018-08-30T02:44:40.637Z,64.40
2018-08-30T02:45:40.823Z,64.50
2018-08-30T02:46:41.021Z,65.90
2018-08-30T02:47:41.214Z,66.70
2018-08-30T02:48:41.405Z,66.00
2018-08-30T02:49:41.594Z,64.80
2018-08-30T02:50:41.784Z,64.10
2018-08-30T02:51:41.979Z,66.20
2018-08-30T02:52:42.173Z,65.00
2018-08-30T02:53:42.365Z,68.30
2018-08-30T02:54:42.554Z,64.30
2018-08-30T02:55:42.751Z,64.90
2018-08-30T02:56:42.939Z,66.30
2018-08-30T02:57:43.129Z,63.40
2018-08-30T02:58:43.320Z,67.60
2018-08-30T02:59:43.512Z,67.50
2018-08-30T03:00:43.703Z,66.90
2018-08-30T03:01:43.895Z,67.20
2018-08-30T03:02:44.089Z,67.70
2018-08-30T03:03:44.279Z,67.70
2018-08-30T03:04:44.472Z,68.80
2018-08-30T03:05:44.676Z,67.60
2018-08-30T03:06:44.870Z,66.00
2018-08-30T03:07:45.061Z,66.70
2018-08-30T03:08:45.252Z,74.50
2018-08-30T03:09:45.452Z,68.50
2018-08-30T03:10:45.637Z,65.10
2018-08-30T03:11:45.824Z,69.30
2018-08-30T03:12:46.017Z,60.90
2018-08-30T03:13:46.210Z,62.00
2018-08-30T03:14:46.395Z,64.70
2018-08-30T03:15:46.590Z,61.90
2018-08-30T03:16:46.774Z,61.70
2018-08-30T03:17:46.967Z,58.00
2018-08-30T03:18:47.154Z,56.00
2018-08-30T03:19:47.354Z,65.70
2018-08-30T03:20:47.547Z,61.90
2018-08-30T03:21:47.739Z,64.50
2018-08-30T03:22:47.932Z,58.70
2018-08-30T03:23:48.120Z,58.20
2018-08-30T03:24:48.315Z,59.80
2018-08-30T03:25:48.510Z,61.70
2018-08-30T03:26:48.699Z,57.50
2018-08-30T03:27:48.892Z,62.30
2018-08-30T03:28:49.093Z,57.20
2018-08-30T03:29:49.277Z,60.80
2018-08-30T03:30:49.511Z,61.00
2018-08-30T03:31:49.663Z,59.00
2018-08-30T03:32:49.849Z,56.40
2018-08-30T03:33:50.053Z,59.00
2018-08-30T03:34:50.241Z,56.80
2018-08-30T03:35:50.433Z,58.00
2018-08-30T03:36:50.624Z,57.00
2018-08-30T03:37:50.817Z,60.90
2018-08-30T03:38:51.013Z,56.70
2018-08-30T03:39:51.200Z,54.90
2018-08-30T03:40:51.395Z,55.00
2018-08-30T03:41:51.590Z,54.40
2018-08-30T03:42:51.776Z,55.50
2018-08-30T03:43:51.970Z,53.30
2018-08-30T03:44:52.166Z,53.80
2018-08-30T03:45:52.355Z,49.30
2018-08-30T03:46:52.592Z,49.80
2018-08-30T03:47:52.738Z,49.80
2018-08-30T03:48:52.933Z,51.00
2018-08-30T03:49:53.119Z,48.30
2018-08-30T03:50:53.314Z,49.80
2018-08-30T03:51:53.502Z,47.80
2018-08-30T03:52:53.692Z,48.70
2018-08-30T03:53:53.885Z,46.80
2018-08-30T03:54:54.075Z,49.00
2018-08-30T03:55:54.268Z,45.00
2018-08-30T03:56:54.459Z,46.70
2018-08-30T03:57:54.651Z,51.10
2018-08-30T03:58:54.844Z,46.00
2018-08-30T03:59:55.035Z,48.70
2018-08-30T04:00:55.229Z,42.80
2018-08-30T04:01:55.418Z,44.40
2018-08-30T04:02:55.617Z,47.50
2018-08-30T04:03:55.812Z,41.60
2018-08-30T04:04:56.006Z,39.90
2018-08-30T04:05:56.190Z,40.10
2018-08-30T04:06:56.387Z,39.20
2018-08-30T04:07:56.589Z,39.70
2018-08-30T04:08:56.765Z,39.30
2018-08-30T04:09:56.974Z,36.70
2018-08-30T04:10:57.151Z,37.90
2018-08-30T04:11:57.344Z,36.20
2018-08-30T04:12:57.542Z,35.40
2018-08-30T04:13:57.747Z,33.50
2018-08-30T04:14:57.952Z,34.00
2018-08-30T04:15:58.165Z,30.40
2018-08-30T04:16:58.377Z,32.60
2018-08-30T04:17:58.605Z,29.90
2018-08-30T04:18:58.771Z,30.10
2018-08-30T04:19:58.963Z,28.50
2018-08-30T04:20:59.157Z,27.50
2018-08-30T04:21:59.385Z,26.60
2018-08-30T04:22:59.537Z,29.00
2018-08-30T04:23:59.728Z,25.60
2018-08-30T04:24:59.925Z,24.20
2018-08-30T04:26:00.122Z,27.10
2018-08-30T04:27:00.343Z,24.40
2018-08-30T04:28:00.503Z,24.50
2018-08-30T04:29:00.715Z,25.60
2018-08-30T04:30:00.903Z,25.20
2018-08-30T04:31:01.096Z,24.50
2018-08-30T04:32:01.288Z,24.00
2018-08-30T04:33:01.480Z,26.40
2018-08-30T04:34:01.669Z,23.80
2018-08-30T04:35:01.866Z,21.30
2018-08-30T04:36:02.052Z,21.60
2018-08-30T04:37:02.247Z,23.90
2018-08-30T04:38:02.440Z,22.00
2018-08-30T04:39:02.653Z,18.70
2018-08-30T04:40:02.842Z,18.30
2018-08-30T04:41:03.032Z,19.70
2018-08-30T04:42:03.226Z,16.60
2018-08-30T04:43:03.419Z,18.70
2018-08-30T04:44:03.609Z,16.40
2018-08-30T04:45:03.802Z,11.10
2018-08-30T04:46:03.994Z,10.20
2018-08-30T04:47:04.182Z,9.10
2018-08-30T04:48:04.380Z,8.20
2018-08-30T04:49:04.563Z,9.20
2018-08-30T04:50:04.820Z,5.90
2018-08-30T04:51:04.959Z,7.30
2018-08-30T04:52:05.147Z,4.70
2018-08-30T04:53:05.339Z,3.80
2018-08-30T04:54:05.526Z,4.90
2018-08-30T04:55:05.720Z,4.10
2018-08-30T04:56:05.914Z,3.30
2018-08-30T04:57:06.104Z,2.70
2018-08-30T04:58:06.299Z,3.40
2018-08-30T04:59:06.493Z,3.50
2018-08-30T05:00:06.683Z,2.60
2018-08-30T05:01:06.873Z,2.40
2018-08-30T05:02:07.074Z,2.20
2018-08-30T05:03:07.263Z,2.30
2018-08-30T05:04:07.465Z,2.10
2018-08-30T05:05:07.658Z,2.40
2018-08-30T05:06:07.845Z,1.90
2018-08-30T05:07:08.037Z,2.10
2018-08-30T05:08:08.229Z,2.20
2018-08-30T05:09:08.416Z,1.70
2018-08-30T05:10:08.687Z,1.90
2018-08-30T05:11:08.801Z,2.90
2018-08-30T05:12:08.988Z,2.00
2018-08-30T05:13:09.187Z,2.40
2018-08-30T05:14:09.374Z,2.10
2018-08-30T05:15:09.575Z,2.10
2018-08-30T05:16:09.778Z,1.80
2018-08-30T05:17:09.959Z,1.90
2018-08-30T05:18:10.164Z,1.60
2018-08-30T05:19:11.322Z,2.10
2018-08-30T05:20:10.540Z,1.60
2018-08-30T05:21:10.737Z,3.90
2018-08-30T05:22:10.927Z,1.90
2018-08-30T05:23:11.196Z,1.60
2018-08-30T05:24:11.321Z,1.90
2018-08-30T05:25:11.517Z,3.30
2018-08-30T05:26:11.712Z,1.50
2018-08-30T05:27:11.920Z,1.90
2018-08-30T05:28:12.119Z,3.10
2018-08-30T05:29:12.314Z,1.70
2018-08-30T05:30:12.501Z,1.60
2018-08-30T05:31:12.697Z,1.80
2018-08-30T05:32:12.891Z,1.80
2018-08-30T05:33:13.079Z,1.70
2018-08-30T05:34:13.271Z,1.60
2018-08-30T05:35:13.465Z,1.70
2018-08-30T05:36:13.653Z,1.90
2018-08-30T05:37:13.845Z,1.70
2018-08-30T05:38:14.036Z,1.90
2018-08-30T05:39:14.249Z,1.60
2018-08-30T05:40:14.443Z,1.60
2018-08-30T05:41:14.638Z,2.10
2018-08-30T05:42:14.831Z,1.50
2018-08-30T05:43:15.025Z,1.70
2018-08-30T05:44:15.213Z,1.60
2018-08-30T05:45:15.405Z,1.60
2018-08-30T05:46:15.607Z,1.40
2018-08-30T05:47:15.802Z,1.40
2018-08-30T05:48:15.989Z,1.50
2018-08-30T05:49:16.178Z,1.40
2018-08-30T05:50:16.369Z,1.50
2018-08-30T05:51:16.555Z,1.40
2018-08-30T05:52:16.746Z,1.50
2018-08-30T05:53:16.941Z,1.60
2018-08-30T05:54:17.180Z,1.40
2018-08-30T05:55:17.320Z,1.40
2018-08-30T05:56:17.509Z,1.30
2018-08-30T05:57:17.709Z,1.30
2018-08-30T05:58:17.889Z,1.50
2018-08-30T05:59:18.082Z,1.60
2018-08-30T06:00:18.264Z,1.50
2018-08-30T06:01:18.458Z,1.60
2018-08-30T06:02:18.657Z,1.50
2018-08-30T06:03:18.846Z,1.50
2018-08-30T06:04:19.042Z,1.50
2018-08-30T06:05:19.235Z,1.70
2018-08-30T06:06:19.427Z,1.50
2018-08-30T06:07:19.709Z,1.50
2018-08-30T06:08:19.829Z,1.60
2018-08-30T06:09:20.005Z,1.60
2018-08-30T06:10:20.200Z,1.50
2018-08-30T06:11:20.386Z,1.60
2018-08-30T06:12:20.578Z,1.80
2018-08-30T06:13:20.766Z,1.60
2018-08-30T06:14:20.959Z,1.80
2018-08-30T06:15:21.152Z,1.80
2018-08-30T06:16:21.348Z,1.80
2018-08-30T06:17:21.539Z,1.70
2018-08-30T06:18:21.732Z,1.60
2018-08-30T06:19:21.929Z,1.80
2018-08-30T06:20:22.126Z,1.70
2018-08-30T06:21:22.309Z,1.60
2018-08-30T06:22:22.497Z,1.80
2018-08-30T06:23:22.689Z,1.50
2018-08-30T06:24:22.887Z,1.90
2018-08-30T06:25:23.086Z,2.00
2018-08-30T06:26:23.277Z,2.10
2018-08-30T06:27:23.474Z,2.00
2018-08-30T06:28:23.664Z,2.80
2018-08-30T06:29:23.922Z,1.80
2018-08-30T06:30:24.047Z,1.80
2018-08-30T06:31:24.235Z,1.80
2018-08-30T06:32:24.435Z,1.60
2018-08-30T06:33:24.626Z,1.90
2018-08-30T06:34:24.820Z,1.70
2018-08-30T06:35:25.012Z,2.00
2018-08-30T06:36:25.224Z,1.80
2018-08-30T06:37:25.400Z,1.80
2018-08-30T06:38:25.580Z,1.80
2018-08-30T06:39:25.770Z,2.10
2018-08-30T06:40:25.965Z,1.60
2018-08-30T06:41:26.164Z,1.80
2018-08-30T06:42:26.349Z,2.20
2018-08-30T06:43:26.554Z,1.70
2018-08-30T06:44:26.743Z,1.70
2018-08-30T06:45:26.953Z,1.60
2018-08-30T06:46:27.136Z,1.90
2018-08-30T06:47:27.323Z,2.10
2018-08-30T06:48:27.543Z,2.10
2018-08-30T06:49:27.708Z,1.70
2018-08-30T06:50:27.896Z,3.10
2018-08-30T06:51:28.094Z,1.70
2018-08-30T06:52:28.284Z,2.20
2018-08-30T06:53:28.483Z,1.90
2018-08-30T06:54:28.669Z,1.80
2018-08-30T06:55:28.864Z,1.90
2018-08-30T06:56:29.099Z,2.00
2018-08-30T06:57:29.249Z,2.00
2018-08-30T06:58:29.474Z,1.90
2018-08-30T06:59:29.636Z,3.00
2018-08-30T07:00:29.828Z,2.70
2018-08-30T07:01:30.022Z,2.90
2018-08-30T07:02:30.210Z,3.30
2018-08-30T07:03:30.407Z,3.20
2018-08-30T07:04:30.591Z,3.20
2018-08-30T07:05:30.811Z,3.60
2018-08-30T07:06:30.977Z,5.20
2018-08-30T07:07:31.165Z,5.30
2018-08-30T07:08:31.359Z,4.70
2018-08-30T07:09:31.548Z,4.90
2018-08-30T07:10:31.742Z,6.40
2018-08-30T07:11:31.925Z,4.70
2018-08-30T07:12:32.112Z,4.70
2018-08-30T07:13:32.291Z,4.80
2018-08-30T07:14:32.527Z,6.50
2018-08-30T07:15:32.690Z,6.00
2018-08-30T07:16:32.881Z,6.50
2018-08-30T07:17:33.077Z,6.50
2018-08-30T07:18:33.262Z,6.00
2018-08-30T07:19:33.460Z,6.00
2018-08-30T07:20:33.645Z,8.00
2018-08-30T07:21:33.847Z,5.60
2018-08-30T07:22:34.044Z,5.70
2018-08-30T07:23:34.240Z,5.10
2018-08-30T07:24:34.448Z,5.70
2018-08-30T07:25:34.642Z,6.20
2018-08-30T07:26:34.834Z,7.40
2018-08-30T07:27:35.024Z,6.10
2018-08-30T07:28:35.252Z,7.10
2018-08-30T07:29:35.407Z,7.60
2018-08-30T07:30:35.597Z,8.00
2018-08-30T07:31:35.789Z,7.90
2018-08-30T07:32:35.989Z,6.90
2018-08-30T07:33:36.181Z,8.10
2018-08-30T07:34:36.436Z,7.70
2018-08-30T07:35:36.562Z,9.20
2018-08-30T07:36:36.764Z,10.70
2018-08-30T07:37:36.937Z,8.70
2018-08-30T07:38:37.126Z,9.50
2018-08-30T07:39:37.315Z,9.50
2018-08-30T07:40:37.508Z,9.40
2018-08-30T07:41:37.699Z,11.40
2018-08-30T07:42:37.893Z,9.80
2018-08-30T07:43:38.087Z,8.90
2018-08-30T07:44:38.297Z,8.50
2018-08-30T07:45:38.459Z,10.80
2018-08-30T07:46:38.651Z,10.70
2018-08-30T07:47:38.837Z,11.10
2018-08-30T07:48:39.050Z,8.80
2018-08-30T07:49:39.236Z,8.80
2018-08-30T07:50:39.431Z,10.50
2018-08-30T07:51:39.613Z,10.00
2018-08-30T07:52:39.809Z,8.40
2018-08-30T07:53:40.003Z,9.10
2018-08-30T07:54:40.229Z,7.80
2018-08-30T07:55:40.399Z,7.90
2018-08-30T07:56:40.594Z,8.40
2018-08-30T07:57:40.783Z,9.80
2018-08-30T07:58:40.973Z,8.60
2018-08-30T07:59:41.166Z,9.80
2018-08-30T08:00:41.359Z,8.20
2018-08-30T08:01:41.549Z,8.10
2018-08-30T08:02:41.745Z,9.20
2018-08-30T08:03:41.934Z,10.90
2018-08-30T08:04:42.124Z,12.30
2018-08-30T08:05:42.315Z,10.00
2018-08-30T08:06:42.504Z,10.10
2018-08-30T08:07:42.700Z,9.60
2018-08-30T08:08:42.890Z,9.90
2018-08-30T08:09:43.072Z,12.50
2018-08-30T08:10:43.272Z,10.20
2018-08-30T08:11:43.464Z,8.90
2018-08-30T08:12:43.723Z,10.40
2018-08-30T08:13:43.848Z,10.30
2018-08-30T08:14:44.040Z,9.80
2018-08-30T08:15:44.235Z,12.30
2018-08-30T08:16:44.425Z,11.10
2018-08-30T08:17:44.630Z,11.70
2018-08-30T08:18:44.816Z,14.10
2018-08-30T08:19:45.006Z,12.10
2018-08-30T08:20:45.198Z,14.20
2018-08-30T08:21:45.376Z,12.70
2018-08-30T08:22:45.591Z,12.40
2018-08-30T08:23:45.787Z,12.70
2018-08-30T08:24:46.018Z,14.30
2018-08-30T08:25:46.160Z,11.80
2018-08-30T08:26:46.351Z,14.40
2018-08-30T08:27:46.550Z,13.30
2018-08-30T08:28:46.748Z,12.30
2018-08-30T08:29:46.937Z,11.00
2018-08-30T08:30:47.138Z,11.90
2018-08-30T08:31:47.323Z,13.10
2018-08-30T08:32:47.513Z,11.40
2018-08-30T08:33:47.713Z,13.80
2018-08-30T08:34:47.909Z,13.00
2018-08-30T08:35:48.107Z,13.60
2018-08-30T08:36:48.303Z,12.70
2018-08-30T08:37:48.494Z,12.50
2018-08-30T08:38:48.687Z,13.30
2018-08-30T08:39:48.876Z,12.40
2018-08-30T08:40:49.069Z,13.50
2018-08-30T08:41:49.259Z,15.40
2018-08-30T08:42:49.456Z,13.10
2018-08-30T08:43:49.646Z,12.50
2018-08-30T08:44:49.837Z,15.20
2018-08-30T08:45:50.029Z,11.50
2018-08-30T08:46:50.219Z,12.00
2018-08-30T08:47:50.477Z,11.50
2018-08-30T08:48:50.605Z,10.70
2018-08-30T08:49:50.795Z,11.20
2018-08-30T08:50:50.985Z,12.50
2018-08-30T08:51:51.180Z,11.70
2018-08-30T08:52:51.367Z,11.20
2018-08-30T08:53:51.648Z,11.80
2018-08-30T08:54:51.768Z,12.30
2018-08-30T08:55:51.959Z,12.20
2018-08-30T08:56:52.152Z,10.80
2018-08-30T08:57:52.350Z,12.40
2018-08-30T08:58:52.558Z,13.70
2018-08-30T08:59:52.743Z,12.10
2018-08-30T09:00:52.949Z,11.30
2018-08-30T09:01:53.143Z,12.10
2018-08-30T09:02:53.349Z,12.30
2018-08-30T09:03:53.543Z,10.80
2018-08-30T09:04:53.723Z,11.90
2018-08-30T09:05:53.918Z,13.70
2018-08-30T09:06:54.166Z,12.60
2018-08-30T09:07:54.350Z,12.80
2018-08-30T09:08:54.492Z,12.90
2018-08-30T09:09:54.689Z,13.50
2018-08-30T09:10:54.881Z,14.10
2018-08-30T09:11:55.074Z,13.70
2018-08-30T09:12:55.266Z,13.30
2018-08-30T09:13:55.459Z,14.30
2018-08-30T09:14:55.651Z,13.30
2018-08-30T09:15:55.847Z,14.10
2018-08-30T09:16:56.037Z,13.20
2018-08-30T09:17:56.237Z,12.50
2018-08-30T09:18:56.429Z,13.40
2018-08-30T09:19:56.620Z,15.70
2018-08-30T09:20:56.814Z,13.70
2018-08-30T09:21:57.007Z,13.10
2018-08-30T09:22:57.260Z,13.60
2018-08-30T09:23:57.398Z,13.10
2018-08-30T09:24:57.591Z,12.70
2018-08-30T09:25:57.799Z,14.30
2018-08-30T09:26:58.087Z,16.40
2018-08-30T09:27:58.175Z,16.50
2018-08-30T09:28:58.374Z,12.50
2018-08-30T09:29:58.571Z,12.70
2018-08-30T09:30:58.790Z,12.80
2018-08-30T09:31:58.950Z,13.70
2018-08-30T09:32:59.150Z,14.40
2018-08-30T09:33:59.397Z,12.90
2018-08-30T09:34:59.538Z,11.90
2018-08-30T09:35:59.733Z,13.50
2018-08-30T09:36:59.924Z,12.60
2018-08-30T09:38:00.120Z,11.80
2018-08-30T09:39:00.385Z,12.30
2018-08-30T09:40:00.509Z,12.20
2018-08-30T09:41:00.723Z,12.40
2018-08-30T09:42:00.915Z,12.90
2018-08-30T09:43:01.118Z,12.30
2018-08-30T09:44:01.313Z,13.80
2018-08-30T09:45:01.518Z,12.40
2018-08-30T09:46:01.708Z,10.60
2018-08-30T09:47:01.902Z,10.90
2018-08-30T09:48:02.094Z,11.80
2018-08-30T09:49:02.286Z,13.00
2018-08-30T09:50:02.484Z,12.50
2018-08-30T09:51:02.720Z,11.80
2018-08-30T09:52:02.870Z,11.80
2018-08-30T09:53:03.094Z,14.20
2018-08-30T09:54:03.253Z,10.80
2018-08-30T09:55:03.481Z,11.50
2018-08-30T09:56:03.633Z,11.00
2018-08-30T09:57:03.919Z,11.00
2018-08-30T09:58:04.014Z,13.00
2018-08-30T09:59:04.211Z,15.20
2018-08-30T10:00:04.406Z,12.20
2018-08-30T10:01:04.599Z,12.60
2018-08-30T10:02:04.786Z,11.90
2018-08-30T10:03:04.985Z,12.10
2018-08-30T10:04:05.177Z,11.70
2018-08-30T10:05:05.404Z,13.20
2018-08-30T10:06:05.569Z,12.00
2018-08-30T10:07:05.760Z,12.20
2018-08-30T10:08:05.952Z,15.80
2018-08-30T10:09:06.144Z,16.00
2018-08-30T10:10:06.354Z,12.10
2018-08-30T10:11:06.550Z,11.50
2018-08-30T10:12:06.745Z,11.90
2018-08-30T10:13:06.942Z,11.60
2018-08-30T10:14:07.204Z,12.20
2018-08-30T10:15:07.377Z,11.00
2018-08-30T10:16:07.568Z,11.00
2018-08-30T10:17:07.761Z,11.20
2018-08-30T10:18:07.958Z,11.70
2018-08-30T10:19:08.146Z,12.40
2018-08-30T10:20:08.339Z,13.00
2018-08-30T10:21:08.535Z,13.20
2018-08-30T10:22:08.726Z,13.10
2018-08-30T10:23:08.946Z,12.20
2018-08-30T10:24:09.134Z,11.80
2018-08-30T10:25:09.326Z,11.60
2018-08-30T10:26:09.521Z,12.20
2018-08-30T10:27:09.718Z,13.30
2018-08-30T10:28:09.914Z,12.50
2018-08-30T10:29:10.109Z,12.00
2018-08-30T10:30:10.299Z,12.10
2018-08-30T10:31:10.491Z,11.10
2018-08-30T10:32:10.686Z,10.90
2018-08-30T10:33:10.880Z,12.10
2018-08-30T10:34:11.075Z,12.30
2018-08-30T10:35:11.266Z,10.70
2018-08-30T10:36:11.470Z,10.90
2018-08-30T10:37:11.660Z,12.00
2018-08-30T10:38:11.859Z,11.10
2018-08-30T10:39:12.047Z,12.10
2018-08-30T10:40:12.240Z,11.50
2018-08-30T10:41:12.429Z,11.80
2018-08-30T10:42:12.620Z,10.90
2018-08-30T10:43:12.815Z,12.10
2018-08-30T10:44:13.012Z,11.90
2018-08-30T10:45:13.207Z,12.40
2018-08-30T10:46:13.395Z,10.70
2018-08-30T10:47:13.590Z,10.40
2018-08-30T10:48:13.783Z,12.20
2018-08-30T10:49:13.986Z,11.00
2018-08-30T10:50:14.189Z,10.60
2018-08-30T10:51:14.384Z,11.10
2018-08-30T10:52:14.570Z,11.80
2018-08-30T10:53:14.759Z,10.10
2018-08-30T10:54:14.963Z,10.90
2018-08-30T10:55:15.160Z,12.00
2018-08-30T10:56:15.360Z,11.50
2018-08-30T10:57:15.543Z,10.60
2018-08-30T10:58:15.738Z,11.20
2018-08-30T10:59:15.935Z,11.40
2018-08-30T11:00:16.127Z,12.10
2018-08-30T11:01:16.323Z,10.50
2018-08-30T11:02:16.526Z,11.60
2018-08-30T11:03:16.721Z,11.50
2018-08-30T11:04:16.982Z,11.50
2018-08-30T11:05:17.124Z,11.20
2018-08-30T11:06:17.322Z,11.80
2018-08-30T11:07:17.519Z,11.60
2018-08-30T11:08:17.712Z,11.50
2018-08-30T11:09:17.930Z,12.00
2018-08-30T11:10:18.103Z,11.20
2018-08-30T11:11:18.299Z,11.60
2018-08-30T11:12:18.490Z,11.80
2018-08-30T11:13:18.732Z,14.40
2018-08-30T11:14:18.886Z,12.10
2018-08-30T11:15:19.072Z,16.50
2018-08-30T11:16:19.262Z,12.80
2018-08-30T11:17:19.454Z,13.80
2018-08-30T11:18:19.644Z,12.90
2018-08-30T11:19:19.870Z,15.10
2018-08-30T11:20:20.030Z,14.20
2018-08-30T11:21:20.224Z,15.60
2018-08-30T11:22:20.428Z,14.90
2018-08-30T11:23:20.615Z,13.60
2018-08-30T11:24:20.813Z,13.90
2018-08-30T11:25:21.001Z,16.70
2018-08-30T11:26:21.200Z,13.30
2018-08-30T11:27:21.396Z,13.50
2018-08-30T11:28:21.596Z,13.20
2018-08-30T11:29:21.792Z,14.80
2018-08-30T11:30:21.983Z,13.30
2018-08-30T11:31:22.175Z,13.80
2018-08-30T11:32:22.378Z,15.30
2018-08-30T11:33:22.583Z,14.60
2018-08-30T11:34:22.775Z,17.30
2018-08-30T11:35:23.017Z,17.90
2018-08-30T11:36:23.218Z,17.10
2018-08-30T11:37:23.407Z,17.20
2018-08-30T11:38:23.600Z,16.00
2018-08-30T11:39:23.789Z,16.20
2018-08-30T11:40:23.988Z,17.70
2018-08-30T11:41:24.249Z,16.20
2018-08-30T11:42:24.388Z,17.10
2018-08-30T11:43:24.630Z,17.30
2018-08-30T11:44:24.763Z,17.20
2018-08-30T11:45:24.964Z,17.60
2018-08-30T11:46:25.159Z,17.60
2018-08-30T11:47:25.404Z,19.80
2018-08-30T11:48:25.479Z,19.60
2018-08-30T11:49:25.668Z,19.80
2018-08-30T11:50:25.864Z,19.00
2018-08-30T11:51:26.061Z,18.20
2018-08-30T11:52:26.320Z,20.00
2018-08-30T11:53:26.451Z,17.70
2018-08-30T11:54:26.645Z,18.90
2018-08-30T11:55:26.843Z,18.10
2018-08-30T11:56:27.040Z,17.30
2018-08-30T11:57:27.233Z,18.00
2018-08-30T11:58:27.424Z,20.40
2018-08-30T11:59:27.615Z,19.50
2018-08-30T12:00:27.816Z,17.80
2018-08-30T12:01:28.001Z,17.70
2018-08-30T12:02:28.200Z,20.30
2018-08-30T12:03:28.394Z,17.10
2018-08-30T12:04:28.593Z,16.90
2018-08-30T12:05:28.787Z,18.50
2018-08-30T12:06:28.985Z,16.80
2018-08-30T12:07:29.174Z,16.60
2018-08-30T12:08:29.397Z,16.20
2018-08-30T12:09:29.559Z,15.50
2018-08-30T12:10:29.834Z,15.30
2018-08-30T12:11:30.006Z,15.20
2018-08-30T12:12:30.147Z,15.20
2018-08-30T12:13:30.340Z,15.20
2018-08-30T12:14:30.537Z,15.70
2018-08-30T12:15:30.729Z,15.90
2018-08-30T12:16:30.926Z,15.90
2018-08-30T12:17:31.122Z,16.00
2018-08-30T12:18:31.311Z,15.70
2018-08-30T12:19:31.514Z,14.90
2018-08-30T12:20:31.761Z,15.30
2018-08-30T12:21:31.902Z,15.60
2018-08-30T12:22:32.101Z,16.30
2018-08-30T12:23:32.292Z,15.20
2018-08-30T12:24:32.490Z,15.50
2018-08-30T12:25:32.685Z,14.50
2018-08-30T12:26:32.886Z,14.40
2018-08-30T12:27:33.073Z,16.00
2018-08-30T12:28:33.315Z,15.00
2018-08-30T12:29:33.500Z,15.60
2018-08-30T12:30:33.671Z,17.30
2018-08-30T12:31:33.914Z,14.80
2018-08-30T12:32:34.090Z,15.60
2018-08-30T12:33:34.236Z,15.00
2018-08-30T12:34:34.572Z,15.70
2018-08-30T12:35:34.673Z,14.80
2018-08-30T12:36:34.855Z,14.30
2018-08-30T12:37:35.031Z,15.10
2018-08-30T12:38:35.283Z,14.60
2018-08-30T12:39:35.423Z,12.70
2018-08-30T12:40:35.621Z,14.20
2018-08-30T12:41:35.824Z,14.70
2018-08-30T12:42:36.050Z,15.70
2018-08-30T12:43:36.279Z,12.50
2018-08-30T12:44:36.459Z,12.20
2018-08-30T12:45:36.614Z,11.70
2018-08-30T12:46:36.864Z,11.60
2018-08-30T12:47:37.004Z,11.70
2018-08-30T12:48:37.249Z,11.60
2018-08-30T12:49:37.414Z,11.30
2018-08-30T12:50:37.750Z,12.80
2018-08-30T12:51:38.104Z,10.50
2018-08-30T12:52:38.104Z,10.20
2018-08-30T12:53:38.404Z,12.20
2018-08-30T12:54:38.478Z,11.10
2018-08-30T12:55:38.691Z,10.80
2018-08-30T12:56:38.852Z,12.10
2018-08-30T12:57:39.096Z,9.40
2018-08-30T12:58:39.291Z,10.90
2018-08-30T12:59:39.521Z,9.30
2018-08-30T13:00:39.752Z,9.50
2018-08-30T13:01:40.100Z,10.10